Terminal Aerodrome Forecast
Issued by NWS

Home | Current Version | Previous Version | Text Only | Print | Product List | Glossary On
Versions: 1 2 3 4 5 6 7 8 9 10 11 12 13 14 15 16 17 18
000
FTUS43 KAPX 232300
TAFAPN
TAF
KAPN 232323Z 2400/2424 34013KT P6SM SKC
     FM240200 32005KT P6SM SKC
     FM241400 32007KT P6SM FEW050=

USA.gov is the U.S. government's official web portal to all federal, state and local government web resources and services.